createdAt,value
2019-01-27T00:00:29.620Z,417.13
2019-01-27T00:02:59.996Z,396.83
2019-01-27T00:05:30.344Z,419.13
2019-01-27T00:08:00.727Z,347.03
2019-01-27T00:10:31.076Z,331.00
2019-01-27T00:13:01.455Z,436.20
2019-01-27T00:15:32.057Z,367.77
2019-01-27T00:18:03.727Z,381.83
2019-01-27T00:20:34.385Z,318.03
2019-01-27T00:23:06.150Z,368.20
2019-01-27T00:25:37.031Z,378.33
2019-01-27T00:28:12.182Z,370.87
2019-01-27T00:30:43.107Z,350.43
2019-01-27T00:33:16.391Z,379.17
2019-01-27T00:35:53.231Z,399.10
2019-01-27T00:38:37.460Z,385.80
2019-01-27T00:41:21.492Z,414.47
2019-01-27T00:44:00.528Z,357.07
2019-01-27T00:46:42.219Z,317.50
2019-01-27T00:49:19.287Z,336.20
2019-01-27T00:51:55.740Z,307.43
2019-01-27T00:54:28.139Z,321.73
2019-01-27T00:57:01.447Z,278.03
2019-01-27T00:59:31.834Z,313.07
2019-01-27T01:02:06.770Z,252.37
2019-01-27T01:04:39.332Z,276.33
2019-01-27T01:07:10.219Z,239.60
2019-01-27T01:09:40.567Z,237.53
2019-01-27T01:12:10.951Z,277.47
2019-01-27T01:14:41.307Z,244.53
2019-01-27T01:17:11.692Z,219.93
2019-01-27T01:19:42.035Z,275.57
2019-01-27T01:22:12.489Z,259.77
2019-01-27T01:24:42.887Z,228.30
2019-01-27T01:27:13.231Z,237.30
2019-01-27T01:29:43.611Z,254.93
2019-01-27T01:32:13.959Z,244.93
2019-01-27T01:34:44.503Z,276.57
2019-01-27T01:37:14.895Z,274.40
2019-01-27T01:39:45.287Z,220.03
2019-01-27T01:42:15.806Z,258.67
2019-01-27T01:44:46.268Z,287.57
2019-01-27T01:47:16.611Z,310.47
2019-01-27T01:49:47.060Z,257.60
2019-01-27T01:52:17.415Z,308.40
2019-01-27T01:54:47.763Z,291.53
2019-01-27T01:57:18.140Z,322.73
2019-01-27T01:59:48.488Z,325.43
2019-01-27T02:02:18.952Z,329.73
2019-01-27T02:04:49.291Z,335.90
2019-01-27T02:07:19.671Z,330.17
2019-01-27T02:09:50.023Z,289.47
2019-01-27T02:12:20.427Z,243.40
2019-01-27T02:14:50.905Z,299.63
2019-01-27T02:17:21.276Z,291.83
2019-01-27T02:19:51.631Z,263.17
2019-01-27T02:22:21.371Z,257.43
2019-01-27T02:24:51.707Z,295.37
2019-01-27T02:27:21.439Z,235.17
2019-01-27T02:29:51.687Z,257.10
2019-01-27T02:32:21.420Z,260.70
2019-01-27T02:34:51.731Z,236.27
2019-01-27T02:37:22.108Z,267.30
2019-01-27T02:39:52.448Z,228.50
2019-01-27T02:42:22.152Z,259.77
2019-01-27T02:44:52.415Z,233.43
2019-01-27T02:47:22.107Z,229.17
2019-01-27T02:49:52.363Z,227.00
2019-01-27T02:52:22.055Z,236.17
2019-01-27T02:54:52.316Z,208.37
2019-01-27T02:57:22.007Z,234.47
2019-01-27T02:59:52.861Z,218.40
2019-01-27T03:02:22.672Z,200.23
2019-01-27T03:04:54.560Z,202.90
2019-01-27T03:07:35.907Z,173.40
2019-01-27T03:10:10.655Z,198.30
2019-01-27T03:12:40.993Z,184.40
2019-01-27T03:15:11.491Z,147.97
2019-01-27T03:17:41.860Z,171.77
2019-01-27T03:20:12.327Z,142.50
2019-01-27T03:22:42.022Z,163.33
2019-01-27T03:25:12.800Z,152.83
2019-01-27T03:27:43.220Z,155.97
2019-01-27T03:30:16.608Z,145.17
2019-01-27T03:32:47.334Z,138.37
2019-01-27T03:35:17.831Z,122.23
2019-01-27T03:37:48.211Z,126.43
2019-01-27T03:40:18.721Z,121.20
2019-01-27T03:42:49.373Z,121.47
2019-01-27T03:45:19.707Z,116.83
2019-01-27T03:47:50.225Z,103.57
2019-01-27T03:50:21.033Z,118.90
2019-01-27T03:52:51.507Z,104.50
2019-01-27T03:55:21.919Z,108.93
2019-01-27T03:57:52.287Z,103.00
2019-01-27T04:00:22.823Z,121.90
2019-01-27T04:02:53.324Z,97.97
2019-01-27T04:05:23.743Z,119.67
2019-01-27T04:07:54.156Z,111.90
2019-01-27T04:10:23.883Z,104.17
2019-01-27T04:12:55.303Z,109.47
2019-01-27T04:15:25.951Z,107.73
2019-01-27T04:17:56.291Z,99.20
2019-01-27T04:20:26.631Z,111.77
2019-01-27T04:22:56.981Z,119.57
2019-01-27T04:25:27.312Z,98.00
2019-01-27T04:27:57.656Z,104.43
2019-01-27T04:30:33.736Z,118.27
2019-01-27T04:33:04.179Z,95.03
2019-01-27T04:35:34.516Z,103.67
2019-01-27T04:38:04.969Z,94.93
2019-01-27T04:40:35.378Z,91.43
2019-01-27T04:43:05.829Z,95.87
2019-01-27T04:45:37.642Z,90.13
2019-01-27T04:48:09.079Z,88.77
2019-01-27T04:50:38.794Z,99.00
2019-01-27T04:53:09.426Z,99.43
2019-01-27T04:55:39.195Z,88.23
2019-01-27T04:58:09.449Z,86.33
2019-01-27T05:00:39.306Z,97.07
2019-01-27T05:03:46.700Z,90.70
2019-01-27T05:06:17.167Z,84.43
2019-01-27T05:08:47.511Z,81.13
2019-01-27T05:11:17.855Z,85.60
2019-01-27T05:13:48.189Z,89.73
2019-01-27T05:16:19.435Z,88.17
2019-01-27T05:18:49.787Z,75.30
2019-01-27T05:21:20.156Z,90.63
2019-01-27T05:23:50.491Z,81.37
2019-01-27T05:26:20.843Z,77.77
2019-01-27T05:28:51.179Z,69.23
2019-01-27T05:31:21.563Z,62.00
2019-01-27T05:33:51.940Z,63.87
2019-01-27T05:36:22.303Z,66.90
2019-01-27T05:38:52.667Z,78.70
2019-01-27T05:41:23.014Z,68.73
2019-01-27T05:43:53.380Z,77.40
2019-01-27T05:46:23.791Z,64.47
2019-01-27T05:48:54.201Z,67.77
2019-01-27T05:51:24.564Z,69.87
2019-01-27T05:53:55.136Z,66.30
2019-01-27T05:56:25.503Z,64.23
2019-01-27T05:58:55.872Z,64.20
2019-01-27T06:01:26.284Z,61.87
2019-01-27T06:03:56.659Z,62.97
2019-01-27T06:06:26.996Z,72.03
2019-01-27T06:08:57.343Z,61.17
2019-01-27T06:11:27.097Z,57.13
2019-01-27T06:13:57.404Z,58.37
2019-01-27T06:16:27.135Z,60.50
2019-01-27T06:18:58.670Z,63.50
2019-01-27T06:21:29.076Z,62.77
2019-01-27T06:23:58.772Z,58.90
2019-01-27T06:26:29.192Z,63.07
2019-01-27T06:28:59.587Z,60.27
2019-01-27T06:31:29.959Z,66.43
2019-01-27T06:34:09.663Z,56.73
2019-01-27T06:36:40.028Z,56.77
2019-01-27T06:39:10.596Z,60.10
2019-01-27T06:41:40.355Z,60.60
2019-01-27T06:44:10.678Z,55.67
2019-01-27T06:46:40.507Z,66.43
2019-01-27T06:49:10.787Z,67.33
2019-01-27T06:51:40.635Z,62.17
2019-01-27T06:54:10.903Z,61.23
2019-01-27T06:56:40.603Z,69.33
2019-01-27T06:59:30.045Z,64.27
2019-01-27T07:02:45.339Z,67.27
2019-01-27T07:05:36.275Z,61.03
2019-01-27T07:08:18.728Z,60.10
2019-01-27T07:11:20.316Z,59.73
2019-01-27T07:14:15.748Z,58.60
2019-01-27T07:17:14.189Z,57.67
2019-01-27T07:20:02.206Z,62.67
2019-01-27T07:22:43.969Z,55.70
2019-01-27T07:25:51.242Z,69.93
2019-01-27T07:28:46.074Z,60.87
2019-01-27T07:31:35.272Z,68.37
2019-01-27T07:34:34.063Z,67.53
2019-01-27T07:37:22.348Z,57.20
2019-01-27T07:40:10.103Z,65.80
2019-01-27T07:42:49.287Z,58.63
2019-01-27T07:45:27.352Z,59.67
2019-01-27T07:48:25.943Z,62.20
2019-01-27T07:51:12.004Z,63.80
2019-01-27T07:53:56.666Z,53.03
2019-01-27T07:56:44.333Z,51.17
2019-01-27T07:59:42.331Z,55.87
2019-01-27T08:02:40.475Z,58.07
2019-01-27T08:05:29.767Z,39.10
2019-01-27T08:08:17.368Z,45.27
2019-01-27T08:11:05.013Z,40.97
2019-01-27T08:13:40.731Z,38.13
2019-01-27T08:16:28.501Z,39.43
2019-01-27T08:19:16.219Z,37.70
2019-01-27T08:22:05.399Z,35.13
2019-01-27T08:24:54.639Z,43.57
2019-01-27T08:27:56.867Z,42.30
2019-01-27T08:30:46.115Z,42.73
2019-01-27T08:33:47.417Z,38.47
2019-01-27T08:36:26.432Z,39.93
2019-01-27T08:39:20.980Z,50.83
2019-01-27T08:42:13.381Z,34.77
2019-01-27T08:45:05.196Z,37.13
2019-01-27T08:47:35.447Z,29.63
2019-01-27T08:50:08.899Z,33.03
2019-01-27T08:52:39.247Z,30.40
2019-01-27T08:55:11.603Z,40.23
2019-01-27T08:57:42.027Z,39.73
2019-01-27T09:00:15.767Z,38.57
2019-01-27T09:03:10.836Z,36.97
2019-01-27T09:05:52.759Z,33.77
2019-01-27T09:09:00.380Z,32.93
2019-01-27T09:12:05.042Z,40.17
2019-01-27T09:14:54.413Z,41.87
2019-01-27T09:17:42.467Z,29.90
2019-01-27T09:20:35.887Z,31.07
2019-01-27T09:23:34.140Z,31.80
2019-01-27T09:26:24.100Z,30.47
2019-01-27T09:29:07.872Z,30.40
2019-01-27T09:32:00.348Z,31.33
2019-01-27T09:34:41.499Z,28.10
2019-01-27T09:37:30.763Z,32.77
2019-01-27T09:40:13.903Z,31.17
2019-01-27T09:43:10.535Z,32.97
2019-01-27T09:46:05.533Z,31.27
2019-01-27T09:48:46.068Z,31.97
2019-01-27T09:51:27.972Z,32.37
2019-01-27T09:54:16.183Z,32.50
2019-01-27T09:56:55.783Z,33.43
2019-01-27T09:59:50.019Z,33.60
2019-01-27T10:02:34.787Z,34.87
2019-01-27T10:05:22.441Z,34.67
2019-01-27T10:08:11.820Z,35.93
2019-01-27T10:10:59.655Z,35.23
2019-01-27T10:13:56.323Z,37.17
2019-01-27T10:16:32.791Z,32.83
2019-01-27T10:19:10.293Z,40.73
2019-01-27T10:22:11.327Z,34.50
2019-01-27T10:25:06.723Z,39.07
2019-01-27T10:28:59.774Z,38.83
2019-01-27T10:31:45.698Z,37.50
2019-01-27T10:34:34.304Z,39.03
2019-01-27T10:37:22.425Z,38.90
2019-01-27T10:40:09.155Z,37.70
2019-01-27T10:42:47.412Z,33.93
2019-01-27T10:45:39.907Z,34.77
2019-01-27T10:48:31.916Z,42.03
2019-01-27T10:51:20.642Z,52.37
2019-01-27T10:54:02.859Z,61.57
2019-01-27T10:56:50.715Z,70.57
2019-01-27T10:59:40.050Z,72.00
2019-01-27T11:02:37.197Z,60.70
2019-01-27T11:05:27.387Z,72.53
2019-01-27T11:08:28.809Z,38.80
2019-01-27T11:11:16.490Z,55.27
2019-01-27T11:14:04.073Z,39.47
2019-01-27T11:16:51.775Z,35.43
2019-01-27T11:19:45.874Z,33.27
2019-01-27T11:22:35.529Z,34.63
2019-01-27T11:25:30.101Z,35.97
2019-01-27T11:28:22.859Z,112.67
2019-01-27T11:31:11.024Z,82.60
2019-01-27T11:34:00.436Z,64.03
2019-01-27T11:36:55.778Z,64.33
2019-01-27T11:39:45.516Z,67.20
2019-01-27T11:42:34.599Z,56.67
2019-01-27T11:45:25.023Z,44.17
2019-01-27T11:48:20.251Z,46.90
2019-01-27T11:51:21.656Z,48.37
2019-01-27T11:53:52.043Z,45.23
2019-01-27T11:56:22.461Z,42.80
2019-01-27T11:58:52.974Z,39.80
2019-01-27T12:01:23.447Z,38.60
2019-01-27T12:03:53.860Z,30.37
2019-01-27T12:06:24.347Z,33.77
2019-01-27T12:08:54.797Z,40.30
2019-01-27T12:11:25.267Z,37.50
2019-01-27T12:13:58.164Z,31.30
2019-01-27T12:16:28.619Z,33.13
2019-01-27T12:18:59.064Z,32.63
2019-01-27T12:21:29.493Z,33.57
2019-01-27T12:23:59.907Z,35.80
2019-01-27T12:26:30.272Z,33.83
2019-01-27T12:28:59.964Z,36.80
2019-01-27T12:31:30.267Z,32.73
2019-01-27T12:34:00.607Z,38.37
2019-01-27T12:36:30.959Z,33.67
2019-01-27T12:39:01.331Z,31.30
2019-01-27T12:41:35.483Z,41.83
2019-01-27T12:44:11.793Z,35.40
2019-01-27T12:51:13.021Z,44.23
2019-01-27T13:03:38.184Z,34.47
2019-01-27T13:07:30.345Z,36.20
2019-01-27T13:12:46.095Z,33.13
2019-01-27T13:16:03.525Z,30.57
2019-01-27T13:18:46.389Z,31.43
2019-01-27T13:22:23.403Z,32.40
2019-01-27T13:25:37.569Z,33.47
2019-01-27T13:28:50.837Z,36.50
2019-01-27T13:38:51.094Z,42.47
2019-01-27T13:42:17.324Z,35.63
2019-01-27T13:45:41.905Z,31.27
2019-01-27T13:48:15.444Z,28.43
2019-01-27T13:51:29.759Z,33.47
2019-01-27T13:54:01.352Z,36.87
2019-01-27T13:56:31.812Z,28.07
2019-01-27T13:59:02.291Z,31.23
2019-01-27T14:01:32.079Z,31.93
2019-01-27T14:04:02.384Z,32.40
2019-01-27T14:06:32.171Z,33.93
2019-01-27T14:09:01.823Z,37.90
2019-01-27T14:11:32.837Z,39.43
2019-01-27T14:14:03.343Z,41.20
2019-01-27T14:16:33.683Z,34.90
2019-01-27T14:19:05.444Z,33.23
2019-01-27T14:21:35.399Z,31.90
2019-01-27T14:24:06.483Z,32.50
2019-01-27T14:26:38.659Z,33.37
2019-01-27T14:29:10.138Z,28.37
2019-01-27T14:31:39.975Z,34.33
2019-01-27T14:34:10.395Z,31.30
2019-01-27T14:36:42.645Z,31.57
2019-01-27T14:39:12.793Z,30.60
2019-01-27T14:41:43.089Z,33.27
2019-01-27T14:44:13.543Z,34.97
2019-01-27T14:46:46.066Z,34.40
2019-01-27T14:52:01.729Z,38.03
2019-01-27T14:54:31.580Z,50.37
2019-01-27T14:57:01.867Z,36.57
2019-01-27T14:59:32.251Z,36.70
2019-01-27T15:02:01.971Z,35.23
2019-01-27T15:04:32.231Z,38.07
2019-01-27T15:07:01.948Z,43.77
2019-01-27T15:09:35.916Z,48.97
2019-01-27T15:12:06.311Z,50.90
2019-01-27T15:14:36.135Z,45.00
2019-01-27T15:17:06.407Z,39.70
2019-01-27T15:19:36.199Z,32.33
2019-01-27T15:22:06.467Z,33.07
2019-01-27T15:24:36.991Z,34.47
2019-01-27T15:27:07.365Z,32.93
2019-01-27T15:29:37.106Z,36.00
2019-01-27T15:32:07.358Z,35.93
2019-01-27T15:34:37.863Z,28.27
2019-01-27T15:37:08.248Z,33.13
2019-01-27T15:39:37.935Z,32.77
2019-01-27T15:42:09.323Z,29.17
2019-01-27T15:44:39.661Z,39.20
2019-01-27T15:47:09.367Z,39.20
2019-01-27T15:49:39.624Z,35.67
2019-01-27T15:52:10.044Z,35.83
2019-01-27T15:54:39.775Z,35.57
2019-01-27T15:57:10.171Z,32.33
2019-01-27T15:59:40.505Z,32.57
2019-01-27T16:02:10.913Z,29.23
2019-01-27T16:04:40.639Z,32.60
2019-01-27T16:07:10.955Z,31.00
2019-01-27T16:09:41.328Z,33.47
2019-01-27T16:16:13.931Z,41.37
2019-01-27T16:18:44.350Z,45.13
2019-01-27T16:21:14.867Z,73.67
2019-01-27T16:23:50.103Z,53.73
2019-01-27T16:26:19.918Z,45.60
2019-01-27T16:32:06.449Z,45.53
2019-01-27T16:34:40.035Z,43.17
2019-01-27T16:37:10.033Z,34.80
2019-01-27T16:39:39.731Z,39.07
2019-01-27T16:42:09.992Z,37.33
2019-01-27T16:44:40.327Z,33.53
2019-01-27T16:47:10.827Z,28.43
2019-01-27T16:49:43.532Z,42.57
2019-01-27T16:52:42.586Z,34.43
2019-01-27T16:55:24.978Z,30.60
2019-01-27T16:58:01.073Z,27.57
2019-01-27T17:01:16.008Z,31.20
2019-01-27T17:03:46.794Z,29.47
2019-01-27T17:06:16.563Z,29.73
2019-01-27T17:08:47.227Z,27.83
2019-01-27T17:11:17.231Z,30.40
2019-01-27T17:13:50.907Z,28.90
2019-01-27T17:19:36.955Z,31.77
2019-01-27T17:22:04.826Z,30.30
2019-01-27T17:24:35.298Z,26.53
2019-01-27T20:06:44.167Z,31.20
2019-01-27T20:09:45.504Z,32.47
2019-01-27T20:12:31.091Z,38.73
2019-01-27T20:15:21.266Z,37.03
2019-01-27T20:18:03.186Z,33.30
2019-01-27T20:20:43.112Z,34.30
2019-01-27T20:23:31.802Z,35.13
2019-01-27T20:26:20.017Z,41.00
2019-01-27T20:29:07.967Z,56.30
2019-01-27T20:32:03.494Z,46.87
2019-01-27T20:34:53.687Z,49.37
2019-01-27T20:37:34.551Z,49.77
2019-01-27T20:40:15.693Z,58.37
2019-01-27T20:42:54.967Z,43.73
2019-01-27T20:45:53.835Z,51.83
2019-01-27T20:48:45.931Z,43.10
2019-01-27T20:51:28.119Z,43.27
2019-01-27T20:54:20.139Z,34.43
2019-01-27T20:56:59.415Z,39.70
2019-01-27T20:59:51.654Z,36.60
2019-01-27T21:02:55.531Z,41.93
2019-01-27T21:05:59.967Z,35.13
2019-01-27T21:08:47.955Z,48.10
2019-01-27T21:11:36.063Z,38.87
2019-01-27T21:14:25.104Z,42.07
2019-01-27T21:17:17.561Z,41.10
2019-01-27T21:19:54.123Z,35.40
2019-01-27T21:22:24.659Z,36.03
2019-01-27T21:24:55.026Z,36.77
2019-01-27T21:27:25.051Z,40.47
2019-01-27T21:29:55.746Z,38.13
2019-01-27T21:32:26.107Z,33.10
2019-01-27T21:34:56.515Z,32.63
2019-01-27T21:37:26.423Z,28.90
2019-01-27T21:39:56.975Z,31.37
2019-01-27T21:42:27.344Z,33.70
2019-01-27T21:44:57.674Z,31.73
2019-01-27T21:47:28.043Z,31.37
2019-01-27T21:49:58.399Z,33.50
2019-01-27T21:52:28.766Z,32.50
2019-01-27T21:54:59.159Z,34.40
2019-01-27T21:57:30.915Z,37.00
2019-01-27T22:00:01.225Z,35.47
2019-01-27T22:02:32.684Z,35.57
2019-01-27T22:05:03.285Z,32.00
2019-01-27T22:07:34.763Z,30.30
2019-01-27T22:10:06.099Z,33.10
2019-01-27T22:12:37.219Z,34.13
2019-01-27T22:15:07.779Z,30.20
2019-01-27T22:17:38.147Z,31.63
2019-01-27T22:20:10.474Z,31.07
2019-01-27T22:22:41.771Z,33.47
2019-01-27T22:25:13.178Z,33.87
2019-01-27T22:27:43.676Z,31.40
2019-01-27T22:30:19.559Z,32.13
2019-01-27T22:32:49.913Z,28.83
2019-01-27T22:35:20.339Z,29.60
2019-01-27T22:37:50.699Z,37.87
2019-01-27T22:40:21.039Z,32.33
2019-01-27T22:42:51.383Z,33.77
2019-01-27T22:45:22.524Z,30.67
2019-01-27T22:47:52.359Z,35.90
2019-01-27T22:50:23.028Z,34.10
2019-01-27T22:52:53.420Z,34.97
2019-01-27T22:55:23.763Z,31.60
2019-01-27T22:57:54.115Z,31.93
2019-01-27T23:00:58.703Z,31.00
2019-01-27T23:03:31.096Z,35.37
2019-01-27T23:06:01.449Z,34.20
2019-01-27T23:08:31.827Z,35.67
2019-01-27T23:11:03.227Z,33.13
2019-01-27T23:13:33.571Z,33.43
2019-01-27T23:16:04.130Z,36.37
2019-01-27T23:18:34.491Z,33.67
2019-01-27T23:21:05.423Z,34.17
2019-01-27T23:23:35.820Z,33.57
2019-01-27T23:26:06.289Z,30.00
2019-01-27T23:28:36.815Z,39.33
2019-01-27T23:31:07.256Z,34.33
2019-01-27T23:33:37.728Z,34.37
2019-01-27T23:36:08.071Z,33.47
2019-01-27T23:38:38.448Z,33.77
2019-01-27T23:41:08.871Z,30.20
2019-01-27T23:43:39.207Z,34.17
2019-01-27T23:46:09.596Z,31.97
2019-01-27T23:48:39.959Z,35.47
2019-01-27T23:51:10.324Z,31.40
2019-01-27T23:53:41.120Z,34.17
2019-01-27T23:56:11.995Z,32.73
2019-01-27T23:58:42.336Z,37.50
